• Join FlightAware (Why Join?)
  • Login
  • US Flag 
02:13PM EDT


 

Airport Tracker/Info


-or-


 

Live Flight TrackerFlight Track Log ✈ EJA728 ✈ 14-Jun-2013 ✈ KOMA - KMEM

Flight Track Log - Related Links

Times and Time Zones

All times are in EDT time to prevent confusion due to time zone crossing. See the EJA728 flight status page for this flight to view local times or setup timezone preferences in your user account.

Time Position Orientation Groundspeed Altitude Reporting Facility
EDT Latitude Longitude Course Direction KTS MPH feet Rate Location/Type
03:31PM 41.2992 -95.8914 136° Southeast 151 174 1,800  Level Minneapolis Center
03:31PM 41.2856 -95.8736 136° Southeast 166 191 3,100 3,360 Climbing Minneapolis Center
03:32PM 41.2436 -95.8119 132° Southeast 260 299 6,600 3,360 Climbing Minneapolis Center
03:33PM 41.1833 -95.7517 143° Southeast 264 304 9,800 3,120 Climbing Minneapolis Center
03:34PM 41.1067 -95.6869 148° Southeast 303 349 12,900 2,640 Climbing Minneapolis Center
03:35PM 41.0317 -95.6483 159° South 334 384 15,300 2,760 Climbing Minneapolis Center
03:36PM 40.9133 -95.5703 153° Southeast 384 442 18,700 3,060 Climbing Minneapolis Center
03:37PM 40.7869 -95.4844 153° Southeast 417 480 22,300 2,700 Climbing Minneapolis Center
03:38PM 40.6572 -95.3964 153° Southeast 431 496 25,000 2,400 Climbing Minneapolis Center
03:40PM 40.5439 -95.3194 153° Southeast 450 518 27,400 2,040 Climbing Minneapolis Center
03:41PM 40.4306 -95.2417 152° Southeast 457 526 29,300 1,620 Climbing Minneapolis Center
03:42PM 40.3147 -95.1622 152° Southeast 464 534 30,800 1,680 Climbing Minneapolis Center
03:43PM 40.1975 -95.0831 153° Southeast 470 541 32,800 1,500 Climbing Minneapolis Center
03:43PM 40.1433 -95.0447 152° Southeast 471 542 33,000 360 Climbing Kansas City Center
03:44PM 40.0286 -94.9708 154° Southeast 477 549 33,400 480 Climbing Kansas City Center
03:45PM 39.8931 -94.8806 153° Southeast 486 559 34,000 240 Climbing Kansas City Center
03:46PM 39.7778 -94.8086 154° Southeast 479 551 34,000 420 Level Kansas City Center
03:47PM 39.6450 -94.7250 154° Southeast 473 544 34,900 840 Climbing Kansas City Center
03:48PM 39.5308 -94.6533 154° Southeast 473 544 35,800 960 Climbing Kansas City Center
03:49PM 39.3983 -94.5683 154° Southeast 473 544 36,900 840 Climbing Kansas City Center
03:50PM 39.2817 -94.4964 154° Southeast 480 552 37,600 780 Climbing Kansas City Center
03:51PM 39.1658 -94.4253 155° Southeast 479 551 38,600 960 Climbing Kansas City Center
03:52PM 39.0314 -94.3431 155° Southeast 478 550 39,700 960 Climbing Kansas City Center
03:53PM 38.9197 -94.2614 150° Southeast 484 557 40,700 600 Climbing Kansas City Center
03:54PM 38.8094 -94.1267 136° Southeast 492 566 41,000 120 Climbing Kansas City Center
03:55PM 38.7178 -94.0139 136° Southeast 478 550 41,000  Level Kansas City Center
03:56PM 38.6142 -93.8867 136° Southeast 462 532 41,000  Level Kansas City Center
03:58PM 38.5253 -93.7783 136° Southeast 460 529 41,000  Level Kansas City Center
03:59PM 38.4225 -93.6506 136° Southeast 462 532 41,000  Level Kansas City Center
04:00PM 38.3283 -93.5358 136° Southeast 467 537 41,000  Level Kansas City Center
04:01PM 38.2325 -93.4206 137° Southeast 472 543 41,000  Level Kansas City Center
04:02PM 38.1364 -93.3061 137° Southeast 473 544 41,000  Level Kansas City Center
04:03PM 38.0419 -93.1922 136° Southeast 470 541 41,000  Level Kansas City Center
04:04PM 37.9475 -93.0808 137° Southeast 466 536 41,000  Level Kansas City Center
04:05PM 37.8372 -92.9461 136° Southeast 462 532 41,000  Level Kansas City Center
04:06PM 37.7428 -92.8350 137° Southeast 465 535 41,000  Level Kansas City Center
04:07PM 37.6494 -92.7244 137° Southeast 465 535 41,000  Level Kansas City Center
04:08PM 37.5564 -92.6144 137° Southeast 463 533 41,000  Level Kansas City Center
04:09PM 37.4628 -92.5047 137° Southeast 461 531 41,000 -540 Level Kansas City Center
04:10PM 37.3514 -92.3728 137° Southeast 461 531 39,900 -1,680 Descending Kansas City Center
04:11PM 37.2547 -92.2600 137° Southeast 469 540 37,600 -2,220 Descending Kansas City Center
04:12PM 37.1600 -92.1489 137° Southeast 470 541 35,400 -2,160 Descending Kansas City Center
04:13PM 37.0675 -92.0400 137° Southeast 460 529 33,200 -1,200 Descending Kansas City Center
04:14PM 36.9728 -91.9328 138° Southeast 460 529 33,000 -120 Descending Kansas City Center
04:15PM 36.8731 -91.8183 137° Southeast 476 548 33,000  Level Kansas City Center
04:16PM 36.7506 -91.6772 137° Southeast 494 568 33,000  Level Kansas City Center
04:17PM 36.6483 -91.5614 138° Southeast 497 572 33,000  Level Kansas City Center
04:18PM 36.5911 -91.4967 138° Southeast 494 568 33,000  Level Memphis Center
04:19PM 36.5044 -91.4000 138° Southeast 488 562 33,000  Level Memphis Center
04:20PM 36.3969 -91.2825 139° Southeast 482 555 33,000 -420 Level Memphis Center
04:21PM 36.2978 -91.1733 138° Southeast 477 549 32,200 -1,800 Descending Memphis Center
04:22PM 36.1942 -91.0592 138° Southeast 482 555 29,500 -2,580 Descending Memphis Center
04:23PM 36.0947 -90.9531 139° Southeast 482 555 27,100 -2,460 Descending Memphis Center
04:24PM 35.9678 -90.9186 168° South 452 520 24,600 -2,340 Descending Memphis Center
04:25PM 35.8511 -90.8872 168° South 446 513 22,500 -1,860 Descending Memphis Center
04:26PM 35.7364 -90.8608 169° South 435 501 20,900 -1,560 Descending Memphis Center
04:27PM 35.6261 -90.8294 167° South 408 470 19,400 -1,560 Descending Memphis Center
04:28PM 35.5114 -90.8033 170° South 408 470 17,800 -1,500 Descending Memphis Center
04:29PM 35.4344 -90.7086 135° Southeast 388 447 16,400 -1,320 Descending Memphis Center
04:30PM 35.3911 -90.5914 114° Southeast 359 413 15,200 -1,140 Descending Memphis Center
04:31PM 35.3453 -90.4792 117° Southeast 365 420 14,200 -960 Descending Memphis Center
04:32PM 35.2889 -90.3928 129° Southeast 342 394 13,300 -900 Descending Memphis Center
04:33PM 35.2389 -90.3139 128° Southeast 329 379 12,500 -840 Descending Memphis Center
04:34PM 35.1847 -90.2350 130° Southeast 316 364 11,700 -840 Descending Memphis Center
04:35PM 35.1386 -90.1667 130° Southeast 278 320 10,900 -1,140 Descending Memphis Center
04:36PM 35.0822 -90.1108 141° Southeast 259 298 9,500 -1,620 Descending Memphis Center
04:37PM 35.0000 -90.1000 174° South 275 316 7,800 -1,560 Descending KMEM
04:38PM 34.9333 -90.1000 180° South 251 289 6,500 -1,080 Descending KMEM
04:39PM 34.8694 -90.1092 187° South 246 283 5,700 -960 Descending Memphis Center
04:40PM 34.8150 -90.0814 157° South 196 226 4,600 -1,140 Descending Memphis Center
04:41PM 34.8253 -90.0231 78° East 157 181 3,500 -840 Descending Memphis Center
04:43PM 34.9333 -89.9667 23° Northeast 187 215 2,100 -780 Descending KMEM
04:44PM 34.9833 -89.9667 360° North 158 182 1,200 -720 Descending KMEM
04:45PM 35.0167 -89.9667 360° North 128 147 600 -600 Descending KMEM
04:47PM 35.0333 -89.9667 24° Northeast  Level FlightAware Approximate